Time;durP1;ratioP1;P1;durP2;ratioP2;P2;SDS_P1;SDS_P2;PMS_P1;PMS_P2;Temp;Humidity;BMP_temperature;BMP_pressure;BME280_temperature;BME280_humidity;BME280_pressure;Samples;Min_cycle;Max_cycle;Signal;HPM_P1;HPM_P2
2022/12/15 00:41:04;;;;;;;4.15;2.97;;;10.20;55.00;;;;;;5033349;28;20041;-84
2022/12/15 00:43:32;;;;;;;4.03;2.63;;;10.20;72.80;;;;;;5033093;28;20104;-84
2022/12/15 00:48:43;;;;;;;5.20;3.03;;;10.10;54.90;;;;;;5033219;28;20043;-84
2022/12/15 00:51:09;;;;;;;3.55;2.65;;;10.20;54.90;;;;;;5032915;28;20344;-84
2022/12/15 01:21:00;;;;;;;4.38;3.20;;;10.10;54.90;;;;;;5047209;28;20063;-85
2022/12/15 01:23:26;;;;;;;3.50;2.70;;;10.10;55.20;;;;;;5034551;28;20029;-85
2022/12/15 01:25:52;;;;;;;4.13;2.70;;;10.00;54.90;;;;;;5052179;28;20036;-85
2022/12/15 01:28:19;;;;;;;4.25;2.90;;;10.00;55.00;;;;;;5052187;28;20103;-84
2022/12/15 01:30:45;;;;;;;5.50;3.38;;;10.00;54.90;;;;;;5051014;28;20047;-85
2022/12/15 01:33:11;;;;;;;4.10;3.17;;;10.00;54.90;;;;;;5034258;28;20032;-85
2022/12/15 01:35:37;;;;;;;4.80;3.00;;;10.00;54.90;;;;;;5052168;28;20033;-85
2022/12/15 01:38:03;;;;;;;3.22;2.80;;;10.00;55.00;;;;;;5034254;28;20414;-85
2022/12/15 01:40:44;;;;;;;3.22;2.88;;;10.00;55.00;;;;;;5050985;28;20024;-85
2022/12/15 01:43:16;;;;;;;3.03;2.72;;;10.00;55.00;;;;;;5034206;28;20120;-85
2022/12/15 01:45:52;;;;;;;4.05;2.97;;;10.00;55.00;;;;;;5034151;28;20040;-85
2022/12/15 01:48:33;;;;;;;4.40;2.95;;;10.00;54.90;;;;;;5034227;28;20082;-85
2022/12/15 01:51:13;;;;;;;4.43;3.13;;;10.00;54.90;;;;;;5052020;28;20086;-84
2022/12/15 01:53:50;;;;;;;4.45;2.88;;;10.00;54.90;;;;;;5052200;28;20485;-84
2022/12/15 01:56:17;;;;;;;4.07;2.97;;;10.00;54.90;;;;;;5052429;28;20095;-84
2022/12/15 01:58:47;;;;;;;4.22;2.95;;;10.00;55.00;;;;;;5034563;28;20025;-84
2022/12/15 02:01:13;;;;;;;3.13;2.80;;;9.90;72.90;;;;;;5052017;28;20479;-84
2022/12/15 02:03:40;;;;;;;4.60;2.80;;;9.90;55.50;;;;;;5051963;28;20047;-84
2022/12/15 02:06:07;;;;;;;6.13;3.10;;;9.90;55.10;;;;;;5033924;28;20040;-84
2022/12/15 02:08:32;;;;;;;3.53;2.88;;;10.50;55.40;;;;;;5051961;28;20025;-85
2022/12/15 02:11:19;;;;;;;4.88;2.78;;;9.90;55.00;;;;;;5034056;28;20100;-84
2022/12/15 02:14:06;;;;;;;4.03;2.90;;;9.90;54.90;;;;;;5034053;28;20025;-84
2022/12/15 02:17:02;;;;;;;3.38;2.72;;;9.90;55.00;;;;;;5051945;28;20021;-84
2022/12/15 02:19:36;;;;;;;3.72;2.50;;;9.90;54.90;;;;;;5033663;28;20025;-84
2022/12/15 02:22:40;;;;;;;4.05;2.60;;;9.90;54.50;;;;;;5033884;28;20034;-84
2022/12/15 02:25:17;;;;;;;3.60;2.80;;;9.90;55.00;;;;;;5053804;28;20033;-84
2022/12/15 02:27:58;;;;;;;6.07;3.45;;;9.90;54.90;;;;;;5037586;28;20123;-84
2022/12/15 02:30:40;;;;;;;4.32;2.70;;;9.80;54.80;;;;;;5055440;28;20513;-84
2022/12/15 02:33:26;;;;;;;4.65;2.95;;;9.90;54.90;;;;;;5037516;28;20029;-84
2022/12/15 02:36:24;;;;;;;3.88;2.95;;;9.90;55.00;;;;;;5037658;28;20025;-84
2022/12/15 02:38:50;;;;;;;4.72;2.95;;;9.90;54.90;;;;;;5036443;28;20502;-84
2022/12/15 02:41:44;;;;;;;3.75;2.80;;;9.90;72.10;;;;;;5055257;28;20029;-84
2022/12/15 02:44:37;;;;;;;4.90;3.30;;;9.80;55.10;;;;;;5037261;28;20134;-84
2022/12/15 02:47:46;;;;;;;3.20;2.90;;;9.80;55.00;;;;;;5055171;28;20025;-84
2022/12/15 02:50:32;;;;;;;4.40;3.00;;;9.80;54.80;;;;;;5008401;28;20037;-84
2022/12/15 02:53:06;;;;;;;4.20;3.15;;;9.80;54.90;;;;;;5037164;28;20025;-84
2022/12/15 02:56:03;;;;;;;3.25;2.90;;;9.80;55.00;;;;;;5037294;28;20435;-85
2022/12/15 02:58:46;;;;;;;4.57;2.63;;;9.80;55.00;;;;;;5037002;28;20044;-85
2022/12/15 03:01:32;;;;;;;4.32;2.80;;;9.70;55.00;;;;;;5054974;28;20167;-84
2022/12/15 03:04:00;;;;;;;4.60;3.30;;;9.80;55.00;;;;;;5054869;28;20060;-84
2022/12/15 03:06:27;;;;;;;4.57;2.88;;;9.70;54.90;;;;;;5036745;28;20064;-85
2022/12/15 03:08:52;;;;;;;3.85;2.85;;;9.80;55.10;;;;;;5036979;28;20383;-85
2022/12/15 03:11:18;;;;;;;4.22;2.58;;;9.70;55.10;;;;;;5054860;28;20032;-84
2022/12/15 03:13:43;;;;;;;3.15;2.22;;;9.70;55.00;;;;;;5036899;28;20104;-85
2022/12/15 03:16:09;;;;;;;4.55;3.00;;;9.70;72.00;;;;;;5053344;28;20024;-84
2022/12/15 03:18:35;;;;;;;3.33;2.78;;;9.70;55.90;;;;;;5054546;28;20498;-84
2022/12/15 03:21:00;;;;;;;3.58;2.60;;;9.70;55.00;;;;;;5036709;28;20048;-84
2022/12/15 03:23:26;;;;;;;3.97;2.88;;;9.70;55.10;;;;;;5036596;28;20028;-84
2022/12/15 03:25:51;;;;;;;4.05;3.13;;;9.70;55.10;;;;;;5054665;28;20387;-85
2022/12/15 03:28:17;;;;;;;4.10;3.03;;;9.60;55.00;;;;;;5036532;28;20021;-84
2022/12/15 03:30:43;;;;;;;4.43;3.13;;;9.70;55.00;;;;;;5054390;28;20044;-84
2022/12/15 03:33:08;;;;;;;4.03;2.60;;;9.70;55.10;;;;;;5054660;28;20021;-84
2022/12/15 03:35:35;;;;;;;3.90;2.85;;;;;;;;;;5053677;28;20532;-84
2022/12/15 03:38:00;;;;;;;4.13;2.70;;;9.70;54.60;;;;;;5036196;28;20163;-85
2022/12/15 03:40:26;;;;;;;3.55;2.60;;;9.70;55.10;;;;;;5036645;28;20191;-84
2022/12/15 03:42:52;;;;;;;3.28;2.42;;;;;;;;;;5036279;28;20028;-84
2022/12/15 03:45:21;;;;;;;4.43;2.92;;;9.60;54.50;;;;;;5036142;28;20043;-84
2022/12/15 03:47:47;;;;;;;3.72;2.95;;;9.60;55.00;;;;;;5036235;28;20104;-84
2022/12/15 03:50:16;;;;;;;8.63;3.50;;;9.60;55.10;;;;;;5036305;28;20536;-85
2022/12/15 03:52:41;;;;;;;3.13;2.60;;;9.50;71.90;;;;;;5035938;28;20028;-85
2022/12/15 03:55:08;;;;;;;4.38;3.15;;;9.60;55.10;;;;;;5036055;28;20033;-84
2022/12/15 03:57:33;;;;;;;3.58;2.60;;;9.60;55.20;;;;;;5035747;28;20167;-84
2022/12/15 03:59:59;;;;;;;4.00;2.88;;;9.60;55.10;;;;;;5054224;28;20052;-84
2022/12/15 04:02:25;;;;;;;3.45;2.63;;;9.60;55.00;;;;;;5053831;28;20013;-84
2022/12/15 04:04:50;;;;;;;3.15;2.85;;;9.60;55.10;;;;;;5053625;28;20094;-84
2022/12/15 04:07:16;;;;;;;6.05;3.05;;;9.60;71.70;;;;;;5053753;28;20472;-83
2022/12/15 04:09:41;;;;;;;2.83;2.53;;;9.60;55.00;;;;;;5053660;28;20059;-84
2022/12/15 04:12:10;;;;;;;3.10;2.80;;;9.60;55.00;;;;;;5035679;28;20108;-84
2022/12/15 04:14:41;;;;;;;3.40;2.70;;;9.60;55.00;;;;;;5035815;28;20024;-84
2022/12/15 04:17:10;;;;;;;3.55;2.80;;;9.60;55.00;;;;;;5035725;28;20025;-84
2022/12/15 04:22:19;;;;;;;4.20;2.78;;;9.50;55.00;;;;;;5053725;28;20110;-84
2022/12/15 05:33:14;;;;;;;5.47;3.22;;;9.30;55.10;;;;;;5052729;28;20059;-86
2022/12/15 05:35:39;;;;;;;4.25;2.95;;;9.30;55.10;;;;;;5018102;28;20032;-85
2022/12/15 05:38:05;;;;;;;3.58;2.97;;;9.50;73.00;;;;;;5052744;28;20017;-78
2022/12/15 05:40:31;;;;;;;4.63;3.28;;;9.30;55.20;;;;;;5050918;28;20450;-78
2022/12/15 05:42:59;;;;;;;4.28;3.20;;;9.30;55.40;;;;;;5034089;28;20487;-78
2022/12/15 05:45:26;;;;;;;3.58;2.85;;;9.40;55.50;;;;;;5034065;28;20041;-78
2022/12/15 05:47:53;;;;;;;4.93;3.00;;;9.40;55.40;;;;;;5034191;28;20107;-78
2022/12/15 05:50:19;;;;;;;4.00;3.42;;;9.30;55.50;;;;;;5034168;28;20379;-78
2022/12/15 05:52:45;;;;;;;5.80;3.85;;;9.30;55.50;;;;;;5050695;28;20017;-78
2022/12/15 05:55:11;;;;;;;4.30;3.83;;;9.30;55.60;;;;;;5050719;28;20029;-78
2022/12/15 05:57:37;;;;;;;7.00;5.38;;;9.30;55.80;;;;;;5050857;28;20059;-78
2022/12/15 06:00:04;;;;;;;6.70;5.13;;;9.30;55.80;;;;;;5054152;28;20387;-78
2022/12/15 06:02:30;;;;;;;7.70;6.07;;;9.30;73.50;;;;;;5038095;28;20025;-78
2022/12/15 06:04:55;;;;;;;7.07;6.35;;;9.20;56.00;;;;;;5038025;28;20056;-78
2022/12/15 06:07:21;;;;;;;9.15;7.97;;;9.30;55.90;;;;;;5037994;28;20028;-78
2022/12/15 06:09:47;;;;;;;9.77;7.30;;;9.30;56.00;;;;;;5055930;28;20103;-78
2022/12/15 06:12:12;;;;;;;9.50;8.60;;;9.30;56.10;;;;;;5037883;28;20032;-79
2022/12/15 06:14:38;;;;;;;10.07;9.07;;;;;;;;;;5055855;28;20025;-83
2022/12/15 06:17:04;;;;;;;10.55;9.30;;;9.30;55.60;;;;;;5037875;28;20031;-83
2022/12/15 06:19:30;;;;;;;11.05;9.80;;;9.30;56.30;;;;;;5055879;28;20033;-83
2022/12/15 06:21:55;;;;;;;10.48;9.43;;;9.40;56.20;;;;;;5054427;28;20025;-82
2022/12/15 06:24:21;;;;;;;12.18;10.52;;;9.40;56.50;;;;;;5037690;28;20025;-83
2022/12/15 06:26:47;;;;;;;17.63;9.95;;;9.30;56.20;;;;;;5037688;28;20043;-83
2022/12/15 06:29:13;;;;;;;11.70;9.63;;;9.30;56.20;;;;;;5037345;28;20475;-83
2022/12/15 06:31:39;;;;;;;12.05;9.90;;;9.30;56.30;;;;;;5054094;28;20032;-82
2022/12/15 06:34:07;;;;;;;10.70;9.60;;;9.30;56.20;;;;;;5037368;28;20017;-80
2022/12/15 06:36:33;;;;;;;12.13;9.82;;;9.30;56.20;;;;;;5055524;28;20446;-76
2022/12/15 06:39:01;;;;;;;14.60;9.15;;;9.30;56.70;;;;;;5037221;28;20031;-80
2022/12/15 06:41:29;;;;;;;11.00;8.52;;;9.20;56.30;;;;;;5055176;28;20025;-81
2022/12/15 06:43:55;;;;;;;13.13;8.77;;;9.30;56.80;;;;;;5055047;28;20383;-80
2022/12/15 06:46:21;;;;;;;12.45;8.60;;;9.30;56.20;;;;;;5054883;28;20436;-80
2022/12/15 06:48:47;;;;;;;10.75;8.15;;;9.30;56.10;;;;;;5054937;28;20056;-78
2022/12/15 06:51:14;;;;;;;9.60;8.20;;;9.30;56.20;;;;;;5054984;28;20053;-77
2022/12/15 06:53:47;;;;;;;9.10;8.20;;;9.30;56.10;;;;;;5055203;28;20017;-77
2022/12/15 06:56:19;;;;;;;11.43;7.50;;;9.40;56.00;;;;;;5055028;28;20021;-77
2022/12/15 06:58:47;;;;;;;8.27;7.45;;;9.30;56.40;;;;;;5036928;28;20021;-77
2022/12/15 07:01:14;;;;;;;8.30;7.40;;;9.30;55.80;;;;;;5036743;28;20479;-77
2022/12/15 07:03:40;;;;;;;9.32;6.90;;;9.30;56.50;;;;;;5036811;28;20487;-77
2022/12/15 07:06:08;;;;;;;9.05;7.00;;;9.30;56.10;;;;;;5054589;28;20037;-77
2022/12/15 07:08:33;;;;;;;9.60;7.05;;;9.30;56.00;;;;;;5036702;28;20028;-77
2022/12/15 07:11:02;;;;;;;10.18;6.57;;;9.30;56.00;;;;;;5035748;28;20025;-75
2022/12/15 07:13:28;;;;;;;6.85;6.10;;;9.30;56.00;;;;;;5054691;28;20464;-74
2022/12/15 07:15:53;;;;;;;9.13;6.60;;;9.30;56.10;;;;;;5053377;28;20116;-76
2022/12/15 07:18:19;;;;;;;8.15;6.05;;;9.20;56.10;;;;;;5036679;28;20021;-76
2022/12/15 07:20:45;;;;;;;9.23;6.60;;;9.30;56.20;;;;;;5054782;28;20049;-75
2022/12/15 07:23:10;;;;;;;8.07;6.47;;;9.30;56.20;;;;;;5036598;28;20115;-76
2022/12/15 07:25:37;;;;;;;9.13;6.30;;;9.30;56.20;;;;;;5036449;28;20476;-74
2022/12/15 07:28:03;;;;;;;7.18;5.80;;;9.30;56.20;;;;;;5054179;28;20116;-74
2022/12/15 07:30:29;;;;;;;8.20;6.35;;;9.30;73.10;;;;;;5036551;28;20067;-76
2022/12/15 07:32:54;;;;;;;11.50;5.85;;;9.30;56.10;;;;;;5036372;28;20017;-74
2022/12/15 07:35:21;;;;;;;7.20;5.47;;;9.30;56.20;;;;;;5053059;28;20033;-75
2022/12/15 07:37:46;;;;;;;9.18;5.50;;;9.30;56.10;;;;;;5036380;28;20450;-75
2022/12/15 07:40:12;;;;;;;8.20;5.32;;;9.30;56.20;;;;;;5036373;28;20029;-75
2022/12/15 07:42:38;;;;;;;7.78;4.97;;;9.30;56.20;;;;;;5054104;28;20028;-75
2022/12/15 07:45:04;;;;;;;7.25;5.13;;;9.30;56.40;;;;;;5036074;28;20086;-75
2022/12/15 07:47:31;;;;;;;6.47;4.60;;;9.30;56.70;;;;;;5052782;28;20017;-75
2022/12/15 07:49:57;;;;;;;7.07;4.22;;;9.30;57.00;;;;;;5036122;28;20491;-74
2022/12/15 07:52:23;;;;;;;8.38;4.55;;;;;;;;;;5053880;28;20074;-75
2022/12/15 07:54:48;;;;;;;6.10;4.10;;;9.30;56.70;;;;;;5035968;28;20060;-75
2022/12/15 07:57:15;;;;;;;5.93;4.95;;;9.30;57.50;;;;;;5053639;28;20071;-74
2022/12/15 07:59:40;;;;;;;6.97;4.32;;;9.30;57.50;;;;;;5035830;28;20029;-75
2022/12/15 08:02:09;;;;;;;7.65;4.80;;;9.30;57.50;;;;;;5035832;28;20040;-75
2022/12/15 08:04:34;;;;;;;5.63;4.35;;;9.40;57.40;;;;;;5035649;28;20130;-75
2022/12/15 08:07:00;;;;;;;8.20;4.75;;;9.50;57.50;;;;;;5053734;28;20021;-75
2022/12/15 08:09:26;;;;;;;8.75;4.57;;;9.40;57.60;;;;;;5053597;28;20025;-84
2022/12/15 08:11:51;;;;;;;6.53;4.50;;;9.50;57.50;;;;;;5052359;28;20027;-84
2022/12/15 08:14:17;;;;;;;6.68;4.53;;;9.40;57.50;;;;;;5035737;28;20040;-84
2022/12/15 08:16:44;;;;;;;6.63;5.03;;;9.70;75.60;;;;;;5053719;28;20024;-84
2022/12/15 08:19:14;;;;;;;6.07;4.55;;;9.50;75.50;;;;;;5053079;28;20086;-84
2022/12/15 08:21:41;;;;;;;8.57;4.93;;;9.40;57.40;;;;;;5051756;28;20491;-84
2022/12/15 08:24:08;;;;;;;6.45;4.72;;;9.50;57.30;;;;;;5035386;28;20078;-84
2022/12/15 08:26:34;;;;;;;7.90;4.72;;;9.40;57.30;;;;;;5052951;28;20033;-84
2022/12/15 08:29:02;;;;;;;7.30;4.82;;;9.40;57.40;;;;;;5053392;28;20034;-84
2022/12/15 08:31:30;;;;;;;8.10;5.03;;;9.60;75.70;;;;;;5035117;28;20437;-84
2022/12/15 08:33:57;;;;;;;6.57;5.07;;;9.60;57.30;;;;;;5052021;28;20045;-84
2022/12/15 08:36:22;;;;;;;5.80;4.40;;;9.50;57.30;;;;;;5052948;28;20091;-84
2022/12/15 08:38:48;;;;;;;5.90;4.22;;;9.50;57.30;;;;;;5052827;28;20447;-83
2022/12/15 08:41:18;;;;;;;5.90;4.40;;;9.50;57.80;;;;;;5052901;28;20024;-84
2022/12/15 08:43:44;;;;;;;9.07;5.03;;;9.50;57.20;;;;;;5052798;28;20025;-84
2022/12/15 08:46:11;;;;;;;7.05;4.70;;;9.50;57.20;;;;;;5052768;28;20303;-84
2022/12/15 08:48:37;;;;;;;7.53;4.82;;;9.50;57.20;;;;;;5051388;28;20021;-84
2022/12/15 08:51:03;;;;;;;7.13;4.70;;;9.60;57.30;;;;;;5034702;28;20545;-83
2022/12/15 08:53:29;;;;;;;5.90;4.85;;;9.50;57.10;;;;;;5034813;28;20171;-84
2022/12/15 08:55:54;;;;;;;7.63;5.00;;;9.60;57.20;;;;;;5052432;28;20559;-83
2022/12/15 08:58:20;;;;;;;6.55;4.70;;;9.60;57.30;;;;;;5052570;28;20032;-84
2022/12/15 09:00:46;;;;;;;8.43;5.10;;;;;;;;;;5052608;28;20063;-84
2022/12/15 09:03:12;;;;;;;9.52;5.30;;;9.60;56.70;;;;;;5034963;28;20480;-84
2022/12/15 09:05:38;;;;;;;7.78;5.03;;;;;;;;;;5052562;28;20050;-85
2022/12/15 09:08:04;;;;;;;6.88;4.50;;;9.60;56.60;;;;;;5052948;28;20056;-85
2022/12/15 09:10:30;;;;;;;6.45;4.50;;;9.60;57.20;;;;;;5052352;28;20395;-85
2022/12/15 09:12:56;;;;;;;6.85;5.22;;;9.60;57.10;;;;;;5051046;28;20025;-85
2022/12/15 09:15:21;;;;;;;9.05;5.30;;;9.60;57.10;;;;;;5052581;28;20029;-84
2022/12/15 09:17:47;;;;;;;6.68;5.40;;;9.70;57.10;;;;;;5052359;28;20013;-85
2022/12/15 09:20:13;;;;;;;6.72;4.88;;;9.70;57.00;;;;;;5052222;28;20549;-86
2022/12/15 09:22:42;;;;;;;8.80;5.53;;;9.70;56.90;;;;;;5052546;28;20029;-86
2022/12/15 09:25:08;;;;;;;7.95;5.43;;;9.70;56.80;;;;;;5052174;28;20044;-86
2022/12/15 09:27:34;;;;;;;7.22;5.18;;;9.70;56.90;;;;;;5034543;28;20017;-86
2022/12/15 09:30:01;;;;;;;9.13;5.88;;;9.70;56.80;;;;;;5034411;28;20021;-86
2022/12/15 09:32:27;;;;;;;8.63;6.05;;;9.80;56.80;;;;;;5052286;28;20172;-86
2022/12/15 09:34:53;;;;;;;8.63;6.32;;;9.70;56.70;;;;;;5051518;28;20503;-86
2022/12/15 09:37:19;;;;;;;9.02;6.50;;;9.80;56.70;;;;;;5052381;28;20025;-86
2022/12/15 09:39:44;;;;;;;9.63;6.45;;;9.80;56.60;;;;;;5034462;28;20439;-86
2022/12/15 09:42:24;;;;;;;9.23;6.30;;;9.80;56.60;;;;;;5052272;28;20103;-86
2022/12/15 09:44:58;;;;;;;8.40;6.37;;;9.80;56.70;;;;;;5050724;28;20395;-87
2022/12/15 09:47:41;;;;;;;7.32;5.85;;;9.80;56.70;;;;;;5034493;28;20082;-86
2022/12/15 09:50:11;;;;;;;8.18;5.60;;;9.80;56.80;;;;;;5052073;28;20029;-86
2022/12/15 09:52:52;;;;;;;8.98;5.93;;;9.80;56.90;;;;;;5052194;28;20127;-87
2022/12/15 09:55:24;;;;;;;8.43;5.55;;;9.80;56.90;;;;;;5034265;28;20032;-86
2022/12/15 09:58:10;;;;;;;8.40;5.75;;;9.80;56.90;;;;;;5034539;28;20471;-86
2022/12/15 10:00:54;;;;;;;7.30;5.43;;;9.90;56.90;;;;;;5034631;28;20031;-87
2022/12/15 10:03:49;;;;;;;9.98;5.57;;;9.90;56.90;;;;;;5052437;28;20029;-87
2022/12/15 10:06:31;;;;;;;7.72;5.70;;;10.00;56.80;;;;;;5052281;28;20032;-87
2022/12/15 10:08:58;;;;;;;9.52;5.53;;;10.00;56.90;;;;;;5052335;28;20014;-87
2022/12/15 10:11:27;;;;;;;8.05;5.75;;;10.10;56.90;;;;;;5052431;28;20029;-87
2022/12/15 10:14:25;;;;;;;8.40;5.20;;;10.10;74.40;;;;;;5034725;28;20025;-86
2022/12/15 10:17:02;;;;;;;9.07;5.78;;;10.10;56.90;;;;;;5052459;28;20021;-87
2022/12/15 10:19:38;;;;;;;8.00;5.53;;;10.20;56.70;;;;;;5051923;28;20029;-86
2022/12/15 10:22:04;;;;;;;7.75;5.65;;;10.20;56.60;;;;;;5034134;28;20079;-85
2022/12/15 10:24:32;;;;;;;8.48;6.13;;;10.20;57.20;;;;;;5052174;28;20104;-85
2022/12/15 10:27:17;;;;;;;8.48;5.88;;;10.30;56.60;;;;;;5034178;28;20025;-86
2022/12/15 10:29:55;;;;;;;8.20;5.68;;;10.30;56.50;;;;;;5052124;28;20025;-86
2022/12/15 10:32:37;;;;;;;8.90;5.95;;;10.40;56.50;;;;;;5052547;28;20060;-86
2022/12/15 10:35:28;;;;;;;10.68;5.90;;;10.40;56.30;;;;;;5034843;28;20111;-87
2022/12/15 10:37:58;;;;;;;8.07;5.40;;;10.50;56.30;;;;;;5034610;28;20495;-87
2022/12/15 10:40:46;;;;;;;8.60;5.43;;;10.50;56.20;;;;;;5034775;28;20074;-86
2022/12/15 10:43:22;;;;;;;9.18;5.88;;;10.60;56.30;;;;;;5051310;28;20021;-87
2022/12/15 10:45:49;;;;;;;7.90;5.85;;;10.40;56.10;;;;;;5053808;28;20530;-87
2022/12/15 10:48:19;;;;;;;8.55;6.50;;;10.60;56.20;;;;;;5054745;28;20028;-87
2022/12/15 10:50:45;;;;;;;8.23;5.75;;;10.60;56.20;;;;;;5038302;28;20040;-86
2022/12/15 10:53:37;;;;;;;9.52;6.30;;;10.80;56.00;;;;;;5056330;28;20094;-86
2022/12/15 10:56:05;;;;;;;7.00;5.68;;;10.70;56.00;;;;;;5037536;28;20029;-86
2022/12/15 10:58:31;;;;;;;8.38;6.00;;;10.80;55.90;;;;;;5055540;28;20036;-86
2022/12/15 11:01:13;;;;;;;7.82;5.80;;;10.80;55.80;;;;;;5037868;28;20017;-86
2022/12/15 11:03:39;;;;;;;6.93;5.50;;;10.90;56.40;;;;;;5037532;28;20021;-86
2022/12/15 11:06:17;;;;;;;10.60;6.28;;;11.00;55.60;;;;;;5037124;28;20364;-86
2022/12/15 11:08:43;;;;;;;8.23;5.75;;;11.00;55.60;;;;;;5037604;28;20029;-86
2022/12/15 11:14:43;;;;;;;8.02;6.00;;;11.20;55.40;;;;;;5055619;28;20032;-86
2022/12/15 11:17:18;;;;;;;7.07;5.70;;;11.30;55.40;;;;;;5053957;28;20021;-86
2022/12/15 11:20:01;;;;;;;7.93;5.70;;;11.40;55.50;;;;;;5037059;28;20053;-87
2022/12/15 11:22:51;;;;;;;8.43;6.07;;;11.30;55.30;;;;;;5055018;28;20025;-87
2022/12/15 11:25:40;;;;;;;7.70;5.35;;;11.40;55.30;;;;;;5055009;28;20116;-87
2022/12/15 11:28:14;;;;;;;9.70;5.90;;;11.50;55.30;;;;;;5037408;28;20049;-87
2022/12/15 11:30:51;;;;;;;6.78;5.30;;;11.50;55.20;;;;;;5038274;28;20043;-87
2022/12/15 11:33:18;;;;;;;7.45;6.20;;;11.60;55.20;;;;;;5056518;28;20021;-89
2022/12/15 11:36:21;;;;;;;7.53;5.75;;;11.70;55.20;;;;;;5056341;28;20035;-89
2022/12/15 11:38:57;;;;;;;8.38;5.40;;;11.60;55.10;;;;;;5056556;28;20036;-89
2022/12/15 11:41:36;;;;;;;7.30;5.95;;;11.60;55.20;;;;;;5055768;28;20387;-87
2022/12/15 11:44:20;;;;;;;7.70;5.70;;;11.70;55.10;;;;;;5037989;28;20036;-89
2022/12/15 11:46:57;;;;;;;7.68;5.43;;;11.70;54.90;;;;;;5037811;28;20044;-87
2022/12/15 11:49:47;;;;;;;7.88;5.38;;;11.70;55.40;;;;;;5056003;28;20031;-88
2022/12/15 11:52:49;;;;;;;6.68;5.20;;;11.70;55.20;;;;;;5056172;28;20120;-87
2022/12/15 11:55:36;;;;;;;8.63;6.60;;;11.60;55.20;;;;;;5038162;28;20021;-86
2022/12/15 11:58:02;;;;;;;5.93;5.10;;;;;;;;;;5055299;28;20071;-86
2022/12/15 12:00:32;;;;;;;7.10;5.38;;;11.60;55.10;;;;;;5055400;28;20029;-86
2022/12/15 12:03:20;;;;;;;8.98;5.47;;;11.60;55.50;;;;;;5055652;28;20024;-86
2022/12/15 12:05:59;;;;;;;6.65;5.20;;;11.60;55.40;;;;;;5054979;28;20041;-86
2022/12/15 12:08:52;;;;;;;6.25;5.32;;;11.70;55.30;;;;;;5055535;28;20024;-86
2022/12/15 12:11:44;;;;;;;7.38;5.88;;;11.70;55.50;;;;;;5055160;28;20028;-86
2022/12/15 12:14:25;;;;;;;7.15;5.68;;;11.80;55.40;;;;;;5037257;28;20056;-87
2022/12/15 12:17:37;;;;;;;6.55;5.00;;;11.80;55.70;;;;;;5054288;28;20029;-87
2022/12/15 12:20:12;;;;;;;5.38;4.85;;;11.80;55.50;;;;;;4953917;28;20110;-88
2022/12/15 12:22:56;;;;;;;9.60;5.30;;;11.80;55.60;;;;;;4953784;29;20035;-87
2022/12/15 12:25:24;;;;;;;7.47;5.53;;;11.80;55.60;;;;;;5024619;28;20095;-86
2022/12/15 12:28:05;;;;;;;7.25;5.32;;;11.80;55.60;;;;;;5035961;28;20021;-87
2022/12/15 12:30:45;;;;;;;6.30;4.95;;;11.90;55.60;;;;;;5053748;28;20017;-87
2022/12/15 12:33:17;;;;;;;9.02;5.93;;;11.90;56.20;;;;;;5053686;28;20044;-87
2022/12/15 12:35:53;;;;;;;6.20;5.28;;;11.90;55.60;;;;;;5053444;28;20090;-86
2022/12/15 12:38:27;;;;;;;7.75;5.28;;;12.00;55.10;;;;;;5052468;28;20021;-85
2022/12/15 12:41:02;;;;;;;7.38;5.05;;;12.00;55.60;;;;;;5053640;28;20391;-86
2022/12/15 12:43:39;;;;;;;7.20;4.40;;;12.00;55.60;;;;;;5053685;28;20108;-85
2022/12/15 12:46:27;;;;;;;7.05;4.97;;;12.00;55.50;;;;;;5053338;28;20036;-85
2022/12/15 12:49:08;;;;;;;8.35;5.35;;;12.00;55.60;;;;;;5052985;28;20414;-86
2022/12/15 12:51:38;;;;;;;6.38;5.00;;;12.10;55.60;;;;;;5036745;28;20087;-86
2022/12/15 12:54:35;;;;;;;6.57;4.90;;;12.10;55.50;;;;;;5036638;28;20032;-86
2022/12/15 12:57:29;;;;;;;7.65;4.63;;;12.10;55.60;;;;;;5053685;28;20066;-86
2022/12/15 13:00:06;;;;;;;5.38;3.78;;;12.10;55.80;;;;;;5053796;28;20155;-86
2022/12/15 13:02:36;;;;;;;5.72;4.88;;;12.00;56.00;;;;;;5035618;28;20045;-86
2022/12/15 13:05:21;;;;;;;;;;;12.10;56.20;;;;;;5035387;28;20521;-86
2022/12/15 13:07:55;;;;;;;6.40;4.43;;;12.00;56.30;;;;;;5035353;28;19905;-86
2022/12/15 13:10:23;;;;;;;6.97;4.50;;;12.00;56.30;;;;;;5050833;28;20016;-86
2022/12/15 13:12:57;;;;;;;5.82;4.45;;;12.00;56.40;;;;;;5053033;28;20029;-86
2022/12/15 13:15:26;;;;;;;6.43;4.57;;;12.00;56.30;;;;;;5052841;28;20025;-86
2022/12/15 13:17:56;;;;;;;5.75;4.53;;;12.10;56.30;;;;;;5035000;28;20025;-86
2022/12/15 13:20:27;;;;;;;5.35;4.60;;;12.10;56.20;;;;;;5052735;28;20551;-86
2022/12/15 13:22:54;;;;;;;6.53;5.00;;;12.10;56.30;;;;;;5034597;28;20029;-85
2022/12/15 13:25:34;;;;;;;5.22;4.60;;;12.10;56.30;;;;;;5052613;28;20091;-86
2022/12/15 13:28:14;;;;;;;5.65;4.97;;;12.20;56.20;;;;;;5052642;28;20116;-87
2022/12/15 13:30:58;;;;;;;;;;;12.20;56.30;;;;;;5053094;28;20430;-86
2022/12/15 13:33:25;;;;;;;7.05;4.80;;;12.20;56.20;;;;;;5052599;28;20393;-85
2022/12/15 13:35:51;;;;;;;6.45;4.68;;;12.30;56.30;;;;;;5035036;28;20013;-87
2022/12/15 13:38:18;;;;;;;6.60;4.78;;;12.30;55.70;;;;;;5034978;28;20029;-75
2022/12/15 13:40:43;;;;;;;7.57;4.90;;;12.20;56.20;;;;;;5034357;28;20079;-76
2022/12/15 13:43:47;;;;;;;6.70;4.80;;;12.30;56.40;;;;;;5052531;28;20490;-75
2022/12/15 13:46:22;;;;;;;6.68;5.10;;;12.30;56.40;;;;;;5052052;28;20411;-75
2022/12/15 13:49:01;;;;;;;6.53;4.63;;;12.30;56.40;;;;;;5034212;28;20054;-75
2022/12/15 13:51:40;;;;;;;6.32;4.82;;;12.40;56.30;;;;;;5050942;28;20387;-75
2022/12/15 13:54:22;;;;;;;6.88;4.53;;;12.30;56.10;;;;;;5034217;28;20494;-75
2022/12/15 13:56:54;;;;;;;6.25;4.78;;;12.40;56.30;;;;;;5034233;28;20086;-75
2022/12/15 13:59:28;;;;;;;9.98;4.85;;;12.40;57.00;;;;;;5052037;28;20159;-75
2022/12/15 14:01:53;;;;;;;4.95;3.90;;;12.40;56.30;;;;;;5034181;28;20025;-75
2022/12/15 14:04:20;;;;;;;4.85;3.90;;;12.40;56.00;;;;;;5034128;28;20028;-75
2022/12/15 14:06:47;;;;;;;6.90;4.45;;;12.40;56.50;;;;;;5051787;28;20041;-75
2022/12/15 14:09:18;;;;;;;5.25;4.38;;;12.40;56.60;;;;;;5051966;28;20044;-75
2022/12/15 14:11:45;;;;;;;5.90;4.43;;;12.40;56.50;;;;;;5052064;28;20025;-78
2022/12/15 14:14:27;;;;;;;4.97;4.45;;;12.40;56.50;;;;;;5051881;28;20031;-77
2022/12/15 14:16:57;;;;;;;5.45;4.28;;;12.40;56.40;;;;;;5034159;28;20017;-78
2022/12/15 14:19:23;;;;;;;5.22;4.13;;;12.40;56.70;;;;;;5033788;28;20036;-79
2022/12/15 14:21:49;;;;;;;5.45;4.72;;;12.40;56.80;;;;;;5055370;28;20521;-80
2022/12/15 14:24:21;;;;;;;6.18;4.25;;;12.40;56.70;;;;;;5055677;28;20100;-71
2022/12/15 14:26:47;;;;;;;7.43;6.15;;;12.40;56.90;;;;;;5055599;28;20464;-73
2022/12/15 14:29:12;;;;;;;6.03;4.15;;;12.40;57.00;;;;;;5055595;28;20103;-73
2022/12/15 14:31:39;;;;;;;5.32;4.80;;;12.40;57.10;;;;;;5054254;28;20031;-73
2022/12/15 14:34:12;;;;;;;7.55;4.97;;;12.50;57.10;;;;;;5037621;28;20027;-73
2022/12/15 14:36:40;;;;;;;6.97;5.00;;;12.40;57.30;;;;;;5055302;28;20017;-72
2022/12/15 14:39:12;;;;;;;4.53;4.10;;;12.40;57.30;;;;;;5055241;28;20021;-73
2022/12/15 14:41:43;;;;;;;5.68;4.57;;;12.30;57.10;;;;;;5055329;28;20024;-73
2022/12/15 14:44:29;;;;;;;6.22;5.00;;;12.30;57.60;;;;;;5036961;28;20526;-73
2022/12/15 14:46:55;;;;;;;6.45;4.47;;;12.30;57.60;;;;;;5054819;28;20566;-73
2022/12/15 14:49:25;;;;;;;5.25;4.07;;;12.30;57.70;;;;;;5054770;28;20024;-73
2022/12/15 14:52:00;;;;;;;4.88;3.70;;;12.40;57.80;;;;;;5055031;28;20021;-73
2022/12/15 14:54:30;;;;;;;4.50;3.97;;;12.30;57.80;;;;;;5037209;28;20025;-73
2022/12/15 14:56:59;;;;;;;4.63;3.63;;;12.30;58.00;;;;;;5054720;28;20062;-73
2022/12/15 14:59:31;;;;;;;4.93;3.70;;;12.30;58.00;;;;;;5037036;28;20025;-73
2022/12/15 15:02:19;;;;;;;5.20;3.78;;;12.30;58.10;;;;;;5054988;28;20021;-73
2022/12/15 15:04:55;;;;;;;5.05;3.85;;;12.20;58.10;;;;;;5054603;28;20506;-73
2022/12/15 15:07:22;;;;;;;4.57;3.60;;;12.20;58.00;;;;;;5036788;28;20017;-73
2022/12/15 15:09:48;;;;;;;4.22;3.35;;;12.20;58.30;;;;;;5037044;28;20116;-73
2022/12/15 15:12:23;;;;;;;4.78;4.13;;;12.30;58.30;;;;;;5054797;28;20458;-73
2022/12/15 15:15:00;;;;;;;4.55;3.80;;;12.20;57.80;;;;;;5053145;28;20097;-73
2022/12/15 15:17:41;;;;;;;6.22;4.00;;;12.20;58.30;;;;;;5054157;28;20021;-73
2022/12/15 15:20:21;;;;;;;4.88;3.75;;;12.20;58.40;;;;;;5053765;28;20456;-73
2022/12/15 15:23:07;;;;;;;5.03;3.65;;;12.20;58.50;;;;;;5054164;28;20386;-73
2022/12/15 15:25:33;;;;;;;5.82;3.95;;;;;;;;;;5053936;28;20037;-73
2022/12/15 15:28:10;;;;;;;4.78;4.20;;;12.20;58.10;;;;;;5036056;28;20035;-73
2022/12/15 15:30:45;;;;;;;5.90;4.03;;;12.10;58.50;;;;;;5053982;28;20021;-73
2022/12/15 15:33:12;;;;;;;6.38;4.07;;;12.20;58.60;;;;;;5035124;28;20097;-73
2022/12/15 15:35:40;;;;;;;6.18;4.05;;;12.10;58.10;;;;;;5036176;28;20029;-73
2022/12/15 15:38:17;;;;;;;4.78;3.83;;;12.10;58.70;;;;;;5036391;28;20025;-73
2022/12/15 15:40:51;;;;;;;5.88;4.00;;;12.10;58.60;;;;;;5036382;28;20056;-73
2022/12/15 15:43:18;;;;;;;6.38;3.90;;;12.10;58.70;;;;;;5036131;28;20476;-73
2022/12/15 15:45:44;;;;;;;6.07;4.32;;;12.10;58.80;;;;;;5036160;28;20411;-76